Time;durP1;ratioP1;P1;durP2;ratioP2;P2;SDS_P1;SDS_P2;PMS_P1;PMS_P2;Temp;Humidity;BMP_temperature;BMP_pressure;BME280_temperature;BME280_humidity;BME280_pressure;Samples;Min_cycle;Max_cycle;Signal;HPM_P1;HPM_P2
2022/12/15 00:39:18;;;;;;;11.60;7.53;;;;;;;;;;5112653;28;20397;-77
2022/12/15 00:41:43;;;;;;;11.32;7.88;;;;;;;;;;5112320;28;20032;-77
2022/12/15 00:44:08;;;;;;;11.88;7.30;;;;;;;;;;5095071;28;20042;-77
2022/12/15 01:22:06;;;;;;;9.85;7.32;;;;;;;;;;5116958;28;20543;-77
2022/12/15 01:24:32;;;;;;;12.77;7.57;;;;;;;;;;5116863;28;20028;-77
2022/12/15 01:26:57;;;;;;;10.60;7.28;;;;;;;;;;5117315;28;20040;-77
2022/12/15 01:29:23;;;;;;;9.85;7.50;;;;;;;;;;5115101;28;20071;-77
2022/12/15 01:31:49;;;;;;;14.55;7.40;;;;;;;;;;5098401;28;20074;-77
2022/12/15 01:34:15;;;;;;;10.70;7.18;;;;;;;;;;5115382;28;20039;-77
2022/12/15 01:36:40;;;;;;;11.25;7.88;;;;;;;;;;5116596;28;20111;-77
2022/12/15 01:39:05;;;;;;;12.25;7.32;;;;;;;;;;5115365;28;20081;-77
2022/12/15 01:41:31;;;;;;;13.13;7.45;;;;;;;;;;5115256;28;20053;-77
2022/12/15 01:44:14;;;;;;;10.73;7.53;;;;;;;;;;5115221;28;20019;-77
2022/12/15 01:46:40;;;;;;;9.75;7.05;;;;;;;;;;5116704;28;20102;-77
2022/12/15 01:49:15;;;;;;;13.45;7.72;;;;;;;;;;5116519;28;20111;-77
2022/12/15 01:51:47;;;;;;;10.60;7.15;;;;;;;;;;5115168;28;20019;-77
2022/12/15 01:54:22;;;;;;;17.95;7.30;;;;;;;;;;5115480;28;20386;-77
2022/12/15 01:56:54;;;;;;;12.18;7.68;;;;;;;;;;5115107;28;20050;-77
2022/12/15 01:59:23;;;;;;;10.35;7.18;;;;;;;;;;5115083;28;20342;-77
2022/12/15 02:01:49;;;;;;;12.93;8.23;;;;;;;;;;5114620;28;20027;-77
2022/12/15 02:04:17;;;;;;;13.57;7.57;;;;;;;;;;5097866;28;20463;-77
2022/12/15 02:06:42;;;;;;;12.20;7.22;;;;;;;;;;5115214;28;20382;-77
2022/12/15 02:09:08;;;;;;;15.13;7.68;;;;;;;;;;5115922;28;20038;-77
2022/12/15 02:11:40;;;;;;;10.88;7.07;;;;;;;;;;5114719;28;20495;-77
2022/12/15 02:14:08;;;;;;;13.68;7.85;;;;;;;;;;5116125;28;20072;-77
2022/12/15 02:16:48;;;;;;;11.57;7.43;;;;;;;;;;5114641;28;20020;-77
2022/12/15 02:19:31;;;;;;;11.00;7.55;;;;;;;;;;5115730;28;20023;-77
2022/12/15 02:22:45;;;;;;;10.40;7.25;;;;;;;;;;5115739;28;20023;-77
2022/12/15 02:25:31;;;;;;;10.63;7.25;;;;;;;;;;5060375;27;20483;-77
2022/12/15 02:28:05;;;;;;;12.15;7.32;;;;;;;;;;5114195;28;20100;-77
2022/12/15 02:30:37;;;;;;;10.88;7.38;;;;;;;;;;5114172;28;20047;-77
2022/12/15 02:33:06;;;;;;;9.70;7.18;;;;;;;;;;5115693;28;20107;-77
2022/12/15 02:36:07;;;;;;;10.20;7.05;;;;;;;;;;5114246;28;20026;-77
2022/12/15 02:38:35;;;;;;;10.05;6.78;;;;;;;;;;5101212;28;20390;-77
2022/12/15 02:41:02;;;;;;;12.68;7.47;;;;;;;;;;5114021;28;20046;-76
2022/12/15 02:43:29;;;;;;;10.38;7.03;;;;;;;;;;5114496;28;20031;-77
2022/12/15 02:46:12;;;;;;;10.55;7.38;;;;;;;;;;5096904;28;20028;-77
2022/12/15 02:48:53;;;;;;;9.43;6.50;;;;;;;;;;5115458;28;20505;-77
2022/12/15 02:51:34;;;;;;;12.13;7.18;;;;;;;;;;5115163;28;20106;-77
2022/12/15 02:54:24;;;;;;;11.48;7.32;;;;;;;;;;5114416;28;20051;-77
2022/12/15 02:57:04;;;;;;;8.85;6.47;;;;;;;;;;5115203;28;20024;-77
2022/12/15 02:59:54;;;;;;;10.05;7.00;;;;;;;;;;5114937;28;20042;-77
2022/12/15 03:02:21;;;;;;;13.40;7.15;;;;;;;;;;5114093;28;20059;-77
2022/12/15 03:04:47;;;;;;;10.93;6.95;;;;;;;;;;5096916;28;20043;-77
2022/12/15 03:07:13;;;;;;;9.02;6.43;;;;;;;;;;5113675;28;20033;-77
2022/12/15 03:09:38;;;;;;;10.50;6.70;;;;;;;;;;5113487;28;20027;-77
2022/12/15 03:12:03;;;;;;;9.05;6.50;;;;;;;;;;5114785;28;20501;-77
2022/12/15 03:14:29;;;;;;;11.65;6.65;;;;;;;;;;5112743;28;20389;-77
2022/12/15 03:16:54;;;;;;;12.38;6.80;;;;;;;;;;5113456;28;20026;-77
2022/12/15 03:19:20;;;;;;;10.15;6.72;;;;;;;;;;5115060;28;20477;-77
2022/12/15 03:21:46;;;;;;;9.02;6.45;;;;;;;;;;5113274;28;20110;-77
2022/12/15 03:24:11;;;;;;;9.38;6.85;;;;;;;;;;5113359;28;20111;-77
2022/12/15 03:26:36;;;;;;;8.30;6.28;;;;;;;;;;5114745;28;20139;-77
2022/12/15 03:29:02;;;;;;;9.63;6.38;;;;;;;;;;5114219;28;20048;-77
2022/12/15 03:31:28;;;;;;;9.40;6.57;;;;;;;;;;5113670;28;20529;-77
2022/12/15 03:33:54;;;;;;;11.05;6.80;;;;;;;;;;5113017;28;20123;-77
2022/12/15 03:36:21;;;;;;;9.43;6.18;;;;;;;;;;5112842;28;20164;-77
2022/12/15 03:38:47;;;;;;;9.23;6.82;;;;;;;;;;5114466;28;20066;-77
2022/12/15 03:41:12;;;;;;;10.43;6.93;;;;;;;;;;5095947;28;20028;-77
2022/12/15 03:43:37;;;;;;;8.73;6.30;;;;;;;;;;5114642;28;20035;-77
2022/12/15 03:46:03;;;;;;;10.32;6.63;;;;;;;;;;5114096;28;20031;-77
2022/12/15 03:48:28;;;;;;;8.55;6.32;;;;;;;;;;5113115;28;20043;-77
2022/12/15 03:50:54;;;;;;;8.55;6.40;;;;;;;;;;5113334;28;20389;-77
2022/12/15 03:53:19;;;;;;;10.38;6.65;;;;;;;;;;5096021;28;20062;-77
2022/12/15 03:55:44;;;;;;;8.18;5.88;;;;;;;;;;5112799;28;20032;-77
2022/12/15 03:58:10;;;;;;;11.20;6.43;;;;;;;;;;5112760;28;20028;-78
2022/12/15 04:00:35;;;;;;;8.93;5.95;;;;;;;;;;5114276;28;20484;-78
2022/12/15 04:03:01;;;;;;;12.52;6.60;;;;;;;;;;5112940;28;20093;-77
2022/12/15 04:05:28;;;;;;;9.20;6.30;;;;;;;;;;5113861;28;20498;-77
2022/12/15 04:07:55;;;;;;;8.00;5.72;;;;;;;;;;5113789;28;20425;-77
2022/12/15 04:10:22;;;;;;;7.78;5.60;;;;;;;;;;5112388;28;20031;-78
2022/12/15 04:12:47;;;;;;;10.02;6.38;;;;;;;;;;5095405;28;20379;-78
2022/12/15 04:15:13;;;;;;;11.73;6.32;;;;;;;;;;5113927;28;20053;-78
2022/12/15 04:17:38;;;;;;;9.32;6.40;;;;;;;;;;5112429;28;20112;-77
2022/12/15 04:20:09;;;;;;;7.85;6.03;;;;;;;;;;5112633;28;20098;-78
2022/12/15 04:22:35;;;;;;;9.50;6.18;;;;;;;;;;5112688;28;20027;-78
2022/12/15 05:33:22;;;;;;;15.32;7.10;;;;;;;;;;5113384;28;20039;-76
2022/12/15 05:35:47;;;;;;;14.25;6.50;;;;;;;;;;5112161;28;20035;-76
2022/12/15 05:38:12;;;;;;;22.67;7.15;;;;;;;;;;5117191;28;20355;-75
2022/12/15 05:40:38;;;;;;;16.67;6.38;;;;;;;;;;5116999;28;20092;-75
2022/12/15 05:43:03;;;;;;;18.10;7.28;;;;;;;;;;5116240;28;20051;-76
2022/12/15 05:45:29;;;;;;;19.45;7.05;;;;;;;;;;5116781;28;20469;-75
2022/12/15 05:47:54;;;;;;;21.88;6.90;;;;;;;;;;5115913;28;20036;-76
2022/12/15 05:50:20;;;;;;;16.85;6.38;;;;;;;;;;5115600;28;20529;-77
2022/12/15 05:52:48;;;;;;;18.50;6.85;;;;;;;;;;5116142;28;20458;-76
2022/12/15 05:55:14;;;;;;;16.45;6.15;;;;;;;;;;5115988;28;20019;-78
2022/12/15 05:57:39;;;;;;;23.38;7.15;;;;;;;;;;5116699;28;20027;-76
2022/12/15 06:00:05;;;;;;;21.20;8.13;;;;;;;;;;5118786;28;20039;-76
2022/12/15 06:02:31;;;;;;;23.00;8.10;;;;;;;;;;5115358;28;20032;-78
2022/12/15 06:04:56;;;;;;;30.98;8.88;;;;;;;;;;5115583;28;20531;-78
2022/12/15 06:07:22;;;;;;;27.83;6.97;;;;;;;;;;5116651;28;20034;-76
2022/12/15 06:09:47;;;;;;;24.33;8.48;;;;;;;;;;5115053;28;20051;-76
2022/12/15 06:12:12;;;;;;;23.20;8.68;;;;;;;;;;5116673;28;20114;-76
2022/12/15 06:14:38;;;;;;;21.70;7.85;;;;;;;;;;5116639;28;20088;-77
2022/12/15 06:17:03;;;;;;;20.63;7.30;;;;;;;;;;5116495;28;20466;-78
2022/12/15 06:19:28;;;;;;;23.88;7.85;;;;;;;;;;5116516;28;20031;-76
2022/12/15 06:21:54;;;;;;;22.88;8.07;;;;;;;;;;5114990;28;20031;-78
2022/12/15 06:24:19;;;;;;;20.30;8.23;;;;;;;;;;5116383;28;20066;-78
2022/12/15 06:26:45;;;;;;;20.23;7.68;;;;;;;;;;5116632;28;20024;-77
2022/12/15 06:29:12;;;;;;;14.88;7.75;;;;;;;;;;5114519;28;20039;-77
2022/12/15 06:31:38;;;;;;;19.92;7.50;;;;;;;;;;5097692;28;20020;-77
2022/12/15 06:34:05;;;;;;;20.05;7.97;;;;;;;;;;5114677;28;20020;-77
2022/12/15 06:36:31;;;;;;;16.67;7.20;;;;;;;;;;5114547;28;20016;-77
2022/12/15 06:38:58;;;;;;;16.23;7.35;;;;;;;;;;5097511;28;20113;-77
2022/12/15 06:41:23;;;;;;;15.63;6.82;;;;;;;;;;5114927;28;20458;-77
2022/12/15 06:43:49;;;;;;;14.60;7.32;;;;;;;;;;5098045;28;20039;-77
2022/12/15 06:46:15;;;;;;;17.27;7.38;;;;;;;;;;5097319;28;20031;-77
2022/12/15 06:48:43;;;;;;;12.45;7.70;;;;;;;;;;5115907;28;20050;-78
2022/12/15 06:51:09;;;;;;;12.95;6.82;;;;;;;;;;5112168;28;20027;-76
2022/12/15 06:53:37;;;;;;;13.23;6.95;;;;;;;;;;5113615;28;20027;-77
2022/12/15 06:56:07;;;;;;;11.50;6.97;;;;;;;;;;5115248;28;20020;-75
2022/12/15 06:58:33;;;;;;;11.38;6.60;;;;;;;;;;5113751;28;20034;-76
2022/12/15 07:01:04;;;;;;;13.18;6.97;;;;;;;;;;5115350;28;20474;-76
2022/12/15 07:03:29;;;;;;;12.98;7.20;;;;;;;;;;5097022;28;20035;-76
2022/12/15 07:06:03;;;;;;;13.80;7.90;;;;;;;;;;5115207;28;20057;-78
2022/12/15 07:08:29;;;;;;;9.35;6.63;;;;;;;;;;5097164;28;20520;-78
2022/12/15 07:10:54;;;;;;;11.52;7.22;;;;;;;;;;5079975;28;20032;-78
2022/12/15 07:13:19;;;;;;;11.48;6.88;;;;;;;;;;5114180;28;20458;-78
2022/12/15 07:15:46;;;;;;;14.38;7.45;;;;;;;;;;5115780;28;20027;-78
2022/12/15 07:18:11;;;;;;;8.40;6.57;;;;;;;;;;5096951;28;20398;-79
2022/12/15 07:20:37;;;;;;;10.60;6.40;;;;;;;;;;5115106;28;20031;-78
2022/12/15 07:23:06;;;;;;;10.18;6.40;;;;;;;;;;5113629;28;20470;-77
2022/12/15 07:25:33;;;;;;;12.65;6.63;;;;;;;;;;5097170;28;20031;-78
2022/12/15 07:27:59;;;;;;;11.75;6.68;;;;;;;;;;5113571;28;20024;-78
2022/12/15 07:30:24;;;;;;;12.02;6.63;;;;;;;;;;5096402;28;20040;-76
2022/12/15 07:32:50;;;;;;;13.88;6.90;;;;;;;;;;5096546;28;20023;-77
2022/12/15 07:35:15;;;;;;;18.58;7.35;;;;;;;;;;5114578;28;20024;-76
2022/12/15 07:37:41;;;;;;;14.27;7.45;;;;;;;;;;5114033;28;20454;-76
2022/12/15 07:40:07;;;;;;;13.52;7.22;;;;;;;;;;5114626;28;20112;-77
2022/12/15 07:42:32;;;;;;;13.63;7.90;;;;;;;;;;5113342;28;20389;-78
2022/12/15 07:44:57;;;;;;;14.07;7.60;;;;;;;;;;5114666;28;20036;-78
2022/12/15 07:47:23;;;;;;;14.98;7.78;;;;;;;;;;5113551;28;20485;-78
2022/12/15 07:49:49;;;;;;;22.58;7.80;;;;;;;;;;5113410;28;20133;-78
2022/12/15 07:52:14;;;;;;;20.80;8.40;;;;;;;;;;5096085;28;20031;-78
2022/12/15 07:54:40;;;;;;;24.05;8.38;;;;;;;;;;5113439;28;20038;-76
2022/12/15 07:57:08;;;;;;;13.18;7.85;;;;;;;;;;5096327;28;20027;-78
2022/12/15 07:59:34;;;;;;;12.27;7.30;;;;;;;;;;5112809;28;20024;-78
2022/12/15 08:02:02;;;;;;;25.42;8.57;;;;;;;;;;5113809;28;20389;-78
2022/12/15 08:04:28;;;;;;;15.98;7.72;;;;;;;;;;5114253;28;20455;-78
2022/12/15 08:06:53;;;;;;;16.30;7.50;;;;;;;;;;5114161;28;20126;-77
2022/12/15 08:09:19;;;;;;;14.30;7.35;;;;;;;;;;5114066;28;20031;-77
2022/12/15 08:11:44;;;;;;;11.95;7.18;;;;;;;;;;5095943;28;20061;-77
2022/12/15 08:14:10;;;;;;;13.65;7.05;;;;;;;;;;5073829;28;20509;-76
2022/12/15 08:16:36;;;;;;;12.65;7.15;;;;;;;;;;5095033;28;20028;-79
2022/12/15 08:19:04;;;;;;;18.02;8.68;;;;;;;;;;5095769;28;20508;-78
2022/12/15 08:21:30;;;;;;;14.48;7.97;;;;;;;;;;5095857;28;20398;-78
2022/12/15 08:23:56;;;;;;;17.63;8.55;;;;;;;;;;5113177;28;20024;-77
2022/12/15 08:26:22;;;;;;;22.15;8.07;;;;;;;;;;5113102;28;20028;-77
2022/12/15 08:28:48;;;;;;;14.95;8.23;;;;;;;;;;5095882;28;20030;-77
2022/12/15 08:31:15;;;;;;;16.38;8.55;;;;;;;;;;5095562;28;20023;-77
2022/12/15 08:33:41;;;;;;;15.57;8.60;;;;;;;;;;5112605;28;20027;-76
2022/12/15 08:36:08;;;;;;;12.00;8.10;;;;;;;;;;5112876;28;20020;-77
2022/12/15 08:38:37;;;;;;;13.68;8.05;;;;;;;;;;5114002;28;20034;-77
2022/12/15 08:41:24;;;;;;;13.82;8.52;;;;;;;;;;5112762;28;20019;-77
2022/12/15 08:43:50;;;;;;;13.45;8.75;;;;;;;;;;5114046;28;20076;-77
2022/12/15 08:46:17;;;;;;;15.73;9.20;;;;;;;;;;5095404;28;20541;-77
2022/12/15 08:48:43;;;;;;;17.08;10.45;;;;;;;;;;5114045;28;20091;-77
2022/12/15 08:51:09;;;;;;;15.05;9.60;;;;;;;;;;5095416;28;20032;-77
2022/12/15 08:53:34;;;;;;;17.38;10.40;;;;;;;;;;5113069;28;20477;-77
2022/12/15 08:56:19;;;;;;;15.30;9.55;;;;;;;;;;5113869;28;20034;-77
2022/12/15 08:58:45;;;;;;;15.88;9.90;;;;;;;;;;5112685;28;20081;-77
2022/12/15 09:01:19;;;;;;;15.02;9.88;;;;;;;;;;5112463;28;20081;-77
2022/12/15 09:03:44;;;;;;;14.40;9.88;;;;;;;;;;5095505;28;20058;-77
2022/12/15 09:06:15;;;;;;;14.95;9.77;;;;;;;;;;5095341;28;20055;-77
2022/12/15 09:08:41;;;;;;;15.25;9.98;;;;;;;;;;5095135;28;20470;-77
2022/12/15 09:11:06;;;;;;;15.18;9.32;;;;;;;;;;5078855;28;20042;-77
2022/12/15 09:13:32;;;;;;;16.25;9.32;;;;;;;;;;5118091;28;20030;-77
2022/12/15 09:16:04;;;;;;;14.45;9.15;;;;;;;;;;5116504;28;20031;-77
2022/12/15 09:18:30;;;;;;;15.48;9.32;;;;;;;;;;5116093;28;20024;-77
2022/12/15 09:21:00;;;;;;;14.82;8.88;;;;;;;;;;5116624;28;20152;-76
2022/12/15 09:23:25;;;;;;;18.00;8.85;;;;;;;;;;5116083;28;20086;-77
2022/12/15 09:25:50;;;;;;;13.27;8.68;;;;;;;;;;5112799;28;20506;-76
2022/12/15 09:28:16;;;;;;;12.07;8.27;;;;;;;;;;5115635;28;20035;-76
2022/12/15 09:30:41;;;;;;;13.55;8.38;;;;;;;;;;5098561;28;20052;-76
2022/12/15 09:33:06;;;;;;;13.55;8.90;;;;;;;;;;5115792;28;20043;-76
2022/12/15 09:35:32;;;;;;;14.93;9.02;;;;;;;;;;5098806;28;20085;-76
2022/12/15 09:37:57;;;;;;;11.65;8.65;;;;;;;;;;5116980;28;20035;-75
2022/12/15 09:40:23;;;;;;;17.13;9.07;;;;;;;;;;5115756;28;20366;-75
2022/12/15 09:42:54;;;;;;;14.00;8.90;;;;;;;;;;5081809;28;20482;-76
2022/12/15 09:45:31;;;;;;;13.57;8.75;;;;;;;;;;5115985;28;20034;-76
2022/12/15 09:48:04;;;;;;;15.13;8.75;;;;;;;;;;5115911;28;20023;-77
2022/12/15 09:50:37;;;;;;;12.63;8.80;;;;;;;;;;5115391;28;20545;-77
2022/12/15 09:53:04;;;;;;;10.98;8.40;;;;;;;;;;5115581;28;20077;-77
2022/12/15 09:55:31;;;;;;;11.68;8.07;;;;;;;;;;5115501;28;20118;-77
2022/12/15 09:58:02;;;;;;;15.07;8.48;;;;;;;;;;5115223;28;20032;-77
2022/12/15 10:00:39;;;;;;;12.98;8.40;;;;;;;;;;5115344;28;20024;-76
2022/12/15 10:03:34;;;;;;;11.40;8.35;;;;;;;;;;5098213;28;20034;-76
2022/12/15 10:06:02;;;;;;;12.52;8.65;;;;;;;;;;5102837;28;20451;-77
2022/12/15 10:08:30;;;;;;;16.42;8.48;;;;;;;;;;5098222;28;20023;-78
2022/12/15 10:10:58;;;;;;;13.45;8.27;;;;;;;;;;5098195;28;20050;-77
2022/12/15 10:13:38;;;;;;;14.15;8.23;;;;;;;;;;5109547;28;20062;-76
2022/12/15 10:16:18;;;;;;;11.13;8.15;;;;;;;;;;5097733;28;20027;-75
2022/12/15 10:19:19;;;;;;;12.02;8.70;;;;;;;;;;5115612;28;20023;-76
2022/12/15 10:21:45;;;;;;;12.80;8.55;;;;;;;;;;5081248;28;20031;-76
2022/12/15 10:24:19;;;;;;;12.05;8.20;;;;;;;;;;5113981;28;20106;-78
2022/12/15 10:26:58;;;;;;;12.40;8.40;;;;;;;;;;5115263;28;20015;-78
2022/12/15 10:29:39;;;;;;;11.68;7.82;;;;;;;;;;5113771;28;20040;-76
2022/12/15 10:32:22;;;;;;;12.05;7.68;;;;;;;;;;5114240;28;20056;-76
2022/12/15 10:34:47;;;;;;;14.15;8.50;;;;;;;;;;5113958;28;20023;-77
2022/12/15 10:37:18;;;;;;;11.63;8.15;;;;;;;;;;5113760;28;20035;-75
2022/12/15 10:39:45;;;;;;;15.15;8.50;;;;;;;;;;5097199;28;20031;-77
2022/12/15 10:42:19;;;;;;;13.05;7.72;;;;;;;;;;5114738;28;20035;-76
2022/12/15 10:44:45;;;;;;;;;;;;;;;;;;5114867;28;20076;-76
2022/12/15 10:47:31;;;;;;;11.73;7.50;;;;;;;;;;5097238;28;19998;-78
2022/12/15 10:50:16;;;;;;;12.25;7.68;;;;;;;;;;5113644;28;20035;-77
2022/12/15 10:52:42;;;;;;;12.30;7.55;;;;;;;;;;5097151;28;20506;-77
2022/12/15 10:55:40;;;;;;;10.57;7.70;;;;;;;;;;5097764;28;20176;-77
2022/12/15 10:58:20;;;;;;;11.52;8.02;;;;;;;;;;5070288;28;20042;-78
2022/12/15 11:00:46;;;;;;;15.95;8.02;;;;;;;;;;5114133;28;20076;-77
2022/12/15 11:03:23;;;;;;;12.48;7.80;;;;;;;;;;5097009;28;20027;-77
2022/12/15 11:05:55;;;;;;;10.73;7.25;;;;;;;;;;5114628;28;20028;-77
2022/12/15 11:08:22;;;;;;;8.65;6.45;;;;;;;;;;5096879;28;20069;-77
2022/12/15 11:13:33;;;;;;;11.45;7.28;;;;;;;;;;5115080;28;20119;-76
2022/12/15 11:16:09;;;;;;;10.65;7.25;;;;;;;;;;5114981;28;20115;-77
2022/12/15 11:18:38;;;;;;;10.20;6.85;;;;;;;;;;5113753;28;20123;-79
2022/12/15 11:21:08;;;;;;;16.13;7.45;;;;;;;;;;5096681;28;20058;-77
2022/12/15 11:24:07;;;;;;;10.48;7.03;;;;;;;;;;5113748;28;20127;-77
2022/12/15 11:26:45;;;;;;;11.95;7.43;;;;;;;;;;5096534;28;20023;-77
2022/12/15 11:29:38;;;;;;;15.40;7.47;;;;;;;;;;5114701;28;20397;-77
2022/12/15 11:32:04;;;;;;;10.82;7.03;;;;;;;;;;5114760;28;20119;-77
2022/12/15 11:34:36;;;;;;;12.52;7.20;;;;;;;;;;5112783;28;20597;-78
2022/12/15 11:37:09;;;;;;;10.63;6.97;;;;;;;;;;5113457;28;20023;-77
2022/12/15 11:39:52;;;;;;;12.07;7.40;;;;;;;;;;5096325;28;20024;-77
2022/12/15 11:42:40;;;;;;;13.87;7.80;;;;;;;;;;5113393;28;20255;-77
2022/12/15 11:45:27;;;;;;;12.82;7.30;;;;;;;;;;5096356;28;20031;-77
2022/12/15 11:48:04;;;;;;;12.85;8.20;;;;;;;;;;5114462;28;20031;-77
2022/12/15 11:50:35;;;;;;;12.88;8.07;;;;;;;;;;5114708;28;20054;-77
2022/12/15 11:53:21;;;;;;;10.40;7.88;;;;;;;;;;5096293;28;20115;-77
2022/12/15 11:56:32;;;;;;;13.73;8.13;;;;;;;;;;5096073;28;20059;-78
2022/12/15 11:59:23;;;;;;;14.25;7.95;;;;;;;;;;5114593;28;20458;-78
2022/12/15 12:02:06;;;;;;;10.13;7.38;;;;;;;;;;5095976;28;20039;-77
2022/12/15 12:04:41;;;;;;;10.13;7.88;;;;;;;;;;5114467;28;20028;-77
2022/12/15 12:07:17;;;;;;;13.23;8.55;;;;;;;;;;5114514;28;20058;-77
2022/12/15 12:10:12;;;;;;;14.23;7.97;;;;;;;;;;5113186;28;20024;-77
2022/12/15 12:12:46;;;;;;;14.60;8.23;;;;;;;;;;5112893;28;20516;-77
2022/12/15 12:15:11;;;;;;;13.82;8.35;;;;;;;;;;5113244;28;20019;-77
2022/12/15 12:17:36;;;;;;;12.02;7.90;;;;;;;;;;5112763;28;20538;-77
2022/12/15 12:20:12;;;;;;;18.10;8.23;;;;;;;;;;5114189;28;20028;-77
2022/12/15 12:22:51;;;;;;;11.98;7.55;;;;;;;;;;5095794;28;20028;-76
2022/12/15 12:25:18;;;;;;;14.38;7.70;;;;;;;;;;5112626;28;20499;-76
2022/12/15 12:28:05;;;;;;;14.45;7.97;;;;;;;;;;5112828;28;20027;-76
2022/12/15 12:30:43;;;;;;;12.15;7.25;;;;;;;;;;5112376;28;20502;-75
2022/12/15 12:33:24;;;;;;;15.93;8.35;;;;;;;;;;5095595;28;20473;-76
2022/12/15 12:35:55;;;;;;;14.40;8.32;;;;;;;;;;5112377;28;20080;-77
2022/12/15 12:38:28;;;;;;;12.95;7.97;;;;;;;;;;5112776;28;20027;-78
2022/12/15 12:40:53;;;;;;;14.67;8.00;;;;;;;;;;5095489;28;20039;-77
2022/12/15 12:43:35;;;;;;;13.10;8.15;;;;;;;;;;5114284;28;20023;-77
2022/12/15 12:46:28;;;;;;;14.13;8.05;;;;;;;;;;5114270;28;20493;-77
2022/12/15 12:48:57;;;;;;;10.77;7.75;;;;;;;;;;5116714;28;20020;-76
2022/12/15 12:51:30;;;;;;;9.98;7.03;;;;;;;;;;5116598;28;20436;-74
2022/12/15 12:53:56;;;;;;;12.73;7.28;;;;;;;;;;5099537;28;20031;-77
2022/12/15 12:56:44;;;;;;;13.10;7.32;;;;;;;;;;5116560;28;20114;-78
2022/12/15 12:59:28;;;;;;;11.38;7.18;;;;;;;;;;5116813;28;20084;-78
2022/12/15 13:01:54;;;;;;;11.40;6.50;;;;;;;;;;5116162;28;20020;-77
2022/12/15 13:04:48;;;;;;;13.65;7.30;;;;;;;;;;5116580;28;20046;-77
2022/12/15 13:07:37;;;;;;;10.13;6.87;;;;;;;;;;5106920;28;20043;-77
2022/12/15 13:10:20;;;;;;;10.70;6.60;;;;;;;;;;5116352;28;20275;-77
2022/12/15 13:12:50;;;;;;;14.60;6.57;;;;;;;;;;5117402;28;20028;-78
2022/12/15 13:15:28;;;;;;;11.43;7.13;;;;;;;;;;5116230;28;20027;-77
2022/12/15 13:17:57;;;;;;;13.77;6.30;;;;;;;;;;5117603;27;20035;-77
2022/12/15 13:20:28;;;;;;;11.05;6.78;;;;;;;;;;5116229;28;20015;-76
2022/12/15 13:22:55;;;;;;;16.08;7.18;;;;;;;;;;5117229;28;20497;-77
2022/12/15 13:25:39;;;;;;;10.63;6.15;;;;;;;;;;5116079;28;20085;-77
2022/12/15 13:28:16;;;;;;;10.15;6.53;;;;;;;;;;5116196;28;20019;-77
2022/12/15 13:31:15;;;;;;;8.63;6.32;;;;;;;;;;5115641;28;20047;-77
2022/12/15 13:33:49;;;;;;;9.82;5.85;;;;;;;;;;5117056;28;20062;-78
2022/12/15 13:36:36;;;;;;;7.88;5.90;;;;;;;;;;5117283;28;20034;-79
2022/12/15 13:39:11;;;;;;;10.52;6.45;;;;;;;;;;5115625;28;20114;-76
2022/12/15 13:41:37;;;;;;;11.43;6.63;;;;;;;;;;5115703;28;20131;-76
2022/12/15 13:44:14;;;;;;;10.43;6.20;;;;;;;;;;5115857;28;20110;-79
2022/12/15 13:46:43;;;;;;;7.93;5.90;;;;;;;;;;5117103;28;20412;-78
2022/12/15 13:49:24;;;;;;;8.00;5.82;;;;;;;;;;5115782;28;20030;-78
2022/12/15 13:51:50;;;;;;;8.80;6.43;;;;;;;;;;5115236;28;20115;-76
2022/12/15 13:54:20;;;;;;;10.73;6.00;;;;;;;;;;5098347;28;20474;-78
2022/12/15 13:57:03;;;;;;;9.52;6.32;;;;;;;;;;5116278;28;20035;-76
2022/12/15 13:59:32;;;;;;;8.55;6.03;;;;;;;;;;5115567;28;20028;-77
2022/12/15 14:01:58;;;;;;;11.07;6.15;;;;;;;;;;5113898;28;20474;-76
2022/12/15 14:04:24;;;;;;;13.75;5.72;;;;;;;;;;5112894;28;20028;-78
2022/12/15 14:06:59;;;;;;;8.43;6.18;;;;;;;;;;5096656;28;20039;-77
2022/12/15 14:09:29;;;;;;;8.85;6.28;;;;;;;;;;5097515;28;20080;-77
2022/12/15 14:11:56;;;;;;;8.50;6.55;;;;;;;;;;5114471;28;20030;-77
2022/12/15 14:14:31;;;;;;;10.85;6.53;;;;;;;;;;5114557;28;20031;-77
2022/12/15 14:16:59;;;;;;;8.75;6.55;;;;;;;;;;5097556;28;20031;-77
2022/12/15 14:19:24;;;;;;;10.85;6.53;;;;;;;;;;5097395;28;20019;-77
2022/12/15 14:21:54;;;;;;;8.35;6.43;;;;;;;;;;5114460;28;20389;-77
2022/12/15 14:24:31;;;;;;;9.15;6.45;;;;;;;;;;5097602;28;20100;-78
2022/12/15 14:26:57;;;;;;;9.98;6.00;;;;;;;;;;5114341;28;20085;-78
2022/12/15 14:29:23;;;;;;;9.40;6.53;;;;;;;;;;5115341;28;20047;-78
2022/12/15 14:31:52;;;;;;;8.07;5.82;;;;;;;;;;5114302;28;20031;-78
2022/12/15 14:34:40;;;;;;;8.23;6.05;;;;;;;;;;5114383;28;20023;-76
2022/12/15 14:37:09;;;;;;;11.45;6.53;;;;;;;;;;5115349;28;20019;-78
2022/12/15 14:39:44;;;;;;;11.55;6.53;;;;;;;;;;5113908;28;20029;-76
2022/12/15 14:42:29;;;;;;;8.20;6.55;;;;;;;;;;5113838;28;20484;-78
2022/12/15 14:44:55;;;;;;;10.32;6.55;;;;;;;;;;5115670;28;20030;-76
2022/12/15 14:47:32;;;;;;;10.82;6.82;;;;;;;;;;5097490;28;20027;-76
2022/12/15 14:50:01;;;;;;;9.60;6.60;;;;;;;;;;5114330;28;20036;-78
2022/12/15 14:52:36;;;;;;;8.88;6.35;;;;;;;;;;5114748;28;20027;-76
2022/12/15 14:55:20;;;;;;;13.75;6.45;;;;;;;;;;5097506;28;20086;-77
2022/12/15 14:57:46;;;;;;;12.18;7.05;;;;;;;;;;5114200;28;20478;-78
2022/12/15 15:00:31;;;;;;;11.18;7.25;;;;;;;;;;5114248;28;20032;-76
2022/12/15 15:03:18;;;;;;;10.43;6.93;;;;;;;;;;5115847;28;20020;-76
2022/12/15 15:05:45;;;;;;;10.80;6.72;;;;;;;;;;5113936;28;20080;-76
2022/12/15 15:08:31;;;;;;;11.43;7.20;;;;;;;;;;5114292;28;20019;-76
2022/12/15 15:11:20;;;;;;;10.98;7.97;;;;;;;;;;5096337;28;20055;-78
2022/12/15 15:13:45;;;;;;;9.23;6.38;;;;;;;;;;5113833;28;20106;-76
2022/12/15 15:16:15;;;;;;;9.70;6.85;;;;;;;;;;5114984;28;20460;-76
2022/12/15 15:18:41;;;;;;;13.50;6.93;;;;;;;;;;5096887;28;20031;-78
2022/12/15 15:21:15;;;;;;;11.75;7.20;;;;;;;;;;5114011;28;20073;-77
2022/12/15 15:23:40;;;;;;;;;;;;;;;;;;5096999;28;20030;-76
2022/12/15 15:26:14;;;;;;;12.13;7.80;;;;;;;;;;5096858;28;20014;-78
2022/12/15 15:28:41;;;;;;;12.48;7.53;;;;;;;;;;5097216;28;20037;-78
2022/12/15 15:31:33;;;;;;;9.80;7.25;;;;;;;;;;5113388;28;20044;-78
2022/12/15 15:33:58;;;;;;;13.45;7.55;;;;;;;;;;5113717;28;20027;-78
2022/12/15 15:36:32;;;;;;;13.43;7.55;;;;;;;;;;5096286;28;20046;-77
2022/12/15 15:38:58;;;;;;;;;;;;;;;;;;5114008;28;20039;-75
2022/12/15 15:41:31;;;;;;;12.02;8.00;;;;;;;;;;5113495;28;19908;-77
2022/12/15 15:43:58;;;;;;;11.98;8.00;;;;;;;;;;5096031;28;20389;-78
2022/12/15 15:46:26;;;;;;;11.82;7.30;;;;;;;;;;5112887;28;20032;-78
2022/12/15 15:48:54;;;;;;;9.55;7.22;;;;;;;;;;5095947;28;20485;-78
2022/12/15 15:51:20;;;;;;;14.57;7.55;;;;;;;;;;5113006;28;20049;-78
2022/12/15 15:53:46;;;;;;;10.98;7.22;;;;;;;;;;5079195;28;20118;-76
2022/12/15 15:56:14;;;;;;;13.20;8.18;;;;;;;;;;5095923;28;20061;-77
2022/12/15 15:58:39;;;;;;;9.60;7.32;;;;;;;;;;5113330;28;20032;-76
2022/12/15 16:01:05;;;;;;;13.70;7.47;;;;;;;;;;5112968;28;20489;-76
2022/12/15 16:03:31;;;;;;;12.20;7.18;;;;;;;;;;5095918;28;20019;-76
2022/12/15 16:05:56;;;;;;;11.43;7.45;;;;;;;;;;5114454;28;20032;-77
2022/12/15 16:08:29;;;;;;;11.25;7.25;;;;;;;;;;5096027;28;20024;-76
2022/12/15 16:10:55;;;;;;;10.68;6.90;;;;;;;;;;5113157;28;20027;-77
2022/12/15 16:13:21;;;;;;;12.00;7.03;;;;;;;;;;5095722;28;20032;-76
2022/12/15 16:15:47;;;;;;;13.00;6.80;;;;;;;;;;5114195;28;20028;-78
2022/12/15 16:18:12;;;;;;;11.10;7.35;;;;;;;;;;5112752;28;20023;-76
2022/12/15 16:20:39;;;;;;;13.93;6.50;;;;;;;;;;5112609;28;20039;-77
2022/12/15 16:23:14;;;;;;;17.23;6.82;;;;;;;;;;5113991;28;20092;-76
2022/12/15 16:25:48;;;;;;;12.77;6.57;;;;;;;;;;5095619;28;20023;-77
2022/12/15 16:28:20;;;;;;;14.45;7.13;;;;;;;;;;5112520;28;20031;-77
2022/12/15 16:30:47;;;;;;;12.57;6.80;;;;;;;;;;5112332;28;20075;-78
2022/12/15 16:33:13;;;;;;;14.65;6.82;;;;;;;;;;5114264;28;20051;-77
2022/12/15 16:35:40;;;;;;;11.13;6.90;;;;;;;;;;5111383;28;20080;-77
2022/12/15 16:38:13;;;;;;;16.38;8.50;;;;;;;;;;5111288;28;20073;-80
2022/12/15 16:40:39;;;;;;;14.10;7.85;;;;;;;;;;5085588;28;20024;-79
2022/12/15 16:43:14;;;;;;;17.02;8.32;;;;;;;;;;5101930;28;20473;-79
2022/12/15 16:45:42;;;;;;;13.48;7.55;;;;;;;;;;5092599;28;20020;-79
2022/12/15 16:48:07;;;;;;;14.70;8.55;;;;;;;;;;5102031;28;20020;-79
2022/12/15 16:50:36;;;;;;;15.38;8.35;;;;;;;;;;5103166;28;20077;-78
2022/12/15 16:53:03;;;;;;;14.15;8.85;;;;;;;;;;5102636;28;20016;-79
2022/12/15 16:55:30;;;;;;;14.70;9.40;;;;;;;;;;5098530;28;20402;-80
2022/12/15 16:58:01;;;;;;;13.35;9.75;;;;;;;;;;5093240;28;20055;-79
2022/12/15 17:00:30;;;;;;;19.52;10.10;;;;;;;;;;5092239;28;20024;-79
2022/12/15 17:02:55;;;;;;;14.63;10.70;;;;;;;;;;5075035;28;20024;-78
2022/12/15 17:05:23;;;;;;;16.38;11.73;;;;;;;;;;5093230;28;20347;-79
2022/12/15 17:07:51;;;;;;;14.82;11.80;;;;;;;;;;5075087;28;20387;-80
2022/12/15 17:10:22;;;;;;;16.05;12.55;;;;;;;;;;5092034;28;20016;-77
2022/12/15 17:12:48;;;;;;;17.10;12.32;;;;;;;;;;5092063;28;20028;-78
2022/12/15 17:15:16;;;;;;;13.60;11.95;;;;;;;;;;5074985;28;20459;-79
2022/12/15 17:17:42;;;;;;;17.17;12.45;;;;;;;;;;5093032;28;20386;-78
2022/12/15 17:20:13;;;;;;;18.23;12.77;;;;;;;;;;5091812;28;20028;-79